• Join FlightAware (Why Join?)
  • Login
  • US Flag 
06:02AM EDT


 

Airport Tracker/Info


-or-


 

Live Flight TrackerFlight Track Log ✈ CDG4880 ✈ 03-Aug-2013 ✈ ZSWY / WUS - ZSAM / XMN

Flight Track Log - Related Links

Times and Time Zones

All times are in EDT time to prevent confusion due to time zone crossing. See the CDG4880 flight status page for this flight to view local times or setup timezone preferences in your user account.

Time Position Orientation Groundspeed Altitude Reporting Facility
EDT Latitude Longitude Course Direction KTS MPH feet Rate Location/Type
04:31AM 26.9486 118.0322 178° South  Level Estimated
04:32AM 26.8732 118.0352 178° South  Level Estimated
04:33AM 26.7979 118.0383 178° South  Level Estimated
04:34AM 26.7226 118.0413 178° South  Level Estimated
04:35AM 26.6472 118.0443 178° South  Level Estimated
04:36AM 26.5719 118.0474 178° South  Level Estimated
04:37AM 26.4965 118.0504 178° South  Level Estimated
04:38AM 26.4212 118.0535 178° South  Level Estimated
04:39AM 26.3459 118.0565 178° South  Level Estimated
04:40AM 26.2705 118.0595 178° South  Level Estimated
04:41AM 26.1952 118.0625 178° South  Level Estimated
04:41AM 25.9970 117.9940 178° South 361 415 19,000  Level FlightAware
04:41AM 25.9350 117.9950 179° South 358 412 18,800 -180 Descending FlightAware
04:42AM 25.8830 117.9960 179° South 358 412 18,800  Level FlightAware
04:43AM 25.8320 117.9970 179° South 358 412 18,800  Level FlightAware
04:43AM 25.7820 117.9980 179° South 358 412 18,800  Level FlightAware
04:44AM 25.7310 117.9990 179° South 358 412 18,800  Level FlightAware
04:44AM 25.6800 118.0000 179° South 358 412 18,800 -3,720 Level FlightAware
04:45AM 25.5910 118.0060 177° South 338 389 14,800 -4,500 Descending FlightAware
04:45AM 25.5450 118.0160 169° South 338 389 14,300 -720 Descending FlightAware
04:46AM 25.4680 118.0370 166° South 322 371 13,800 -360 Descending FlightAware
04:47AM 25.4230 118.0490 166° South 322 371 13,800  Level FlightAware
04:47AM 25.3790 118.0620 165° South 322 371 13,800  Level FlightAware
04:50AM 25.2274 118.0740 176° South  Level Estimated
04:51AM 25.1522 118.0799 176° South  Level Estimated
04:52AM 25.0770 118.0859 176° South  Level Estimated
04:53AM 25.0018 118.0918 176° South  Level Estimated
04:54AM 24.9266 118.0977 176° South  Level Estimated
04:55AM 24.8514 118.1036 176° South  Level Estimated
04:56AM 24.7762 118.1096 176° South  Level Estimated
04:57AM 24.7010 118.1154 176° South  Level Estimated
04:58AM 24.6258 118.1213 176° South  Level Estimated
04:59AM 24.5506 118.1272 176° South  Level Estimated
05:00AM 24.5440 118.1277 176° South  Level Estimated
05:01AM 24.5440 118.1277 193° South  Level Estimated
05:02AM 24.5440 118.1277 193° South  Level Estimated
05:03AM 24.5440 118.1277 193° South  Level Estimated
05:04AM 24.5440 118.1277 193° South  Level Estimated
05:05AM 24.5440 118.1277 193° South  Level Estimated
05:06AM 24.5440 118.1277 193° South  Level Estimated
05:07AM 24.5440 118.1277 193° South  Level Estimated
05:08AM 24.5440 118.1277 193° South  Level Estimated
05:09AM 24.5440 118.1277 193° South  Level Estimated